Terminal Aerodrome Forecast
Issued by NWS

Home | Current Version | Previous Version | Text Only | Print | Product List | Glossary On
Versions: 1 2 3 4 5 6 7 8 9 10 11 12 13 14 15 16 17
000
FTUS44 KBMX 190000 AAB
TAFTCL
TAF AMD
KTCL 190052Z 1901/1924 36008KT P6SM VCTS BKN100CB
      TEMPO 1901/1902 VRB08G20KT 2SM TSRA BKN050CB
     FM190200 02002KT P6SM BKN100=

USA.gov is the U.S. government's official web portal to all federal, state and local government web resources and services.